sensor_id;sensor_type;location;lat;lon;timestamp;pressure;altitude;pressure_sealevel;temperature;humidity
49611;BME280;35515;48.766;9.176;2023-01-27T00:00:32;98615.44;;;-0.77;89.58
49611;BME280;35515;48.766;9.176;2023-01-27T00:02:58;98617.13;;;-0.76;89.42
49611;BME280;35515;48.766;9.176;2023-01-27T00:05:26;98615.22;;;-0.74;89.18
49611;BME280;35515;48.766;9.176;2023-01-27T00:07:52;98615.22;;;-0.74;89.32
49611;BME280;35515;48.766;9.176;2023-01-27T00:10:23;98624.25;;;-0.87;89.86
49611;BME280;35515;48.766;9.176;2023-01-27T00:12:50;98608.78;;;-0.51;87.32
49611;BME280;35515;48.766;9.176;2023-01-27T00:15:34;98611.19;;;-0.69;87.72
49611;BME280;35515;48.766;9.176;2023-01-27T00:18:00;98622.00;;;-0.81;88.91
49611;BME280;35515;48.766;9.176;2023-01-27T00:20:28;98604.75;;;-0.87;89.60
49611;BME280;35515;48.766;9.176;2023-01-27T00:23:14;98610.78;;;-0.64;87.99
49611;BME280;35515;48.766;9.176;2023-01-27T00:25:58;98598.06;;;-0.81;89.58
49611;BME280;35515;48.766;9.176;2023-01-27T00:28:26;98606.50;;;-0.76;88.77
49611;BME280;35515;48.766;9.176;2023-01-27T00:30:56;98600.03;;;-0.83;89.01
49611;BME280;35515;48.766;9.176;2023-01-27T00:33:23;98603.00;;;-0.98;89.76
49611;BME280;35515;48.766;9.176;2023-01-27T00:36:00;98609.81;;;-0.84;89.73
49611;BME280;35515;48.766;9.176;2023-01-27T00:38:29;98603.50;;;-0.83;89.78
49611;BME280;35515;48.766;9.176;2023-01-27T00:40:56;98605.47;;;-0.64;88.20
49611;BME280;35515;48.766;9.176;2023-01-27T00:43:44;98614.94;;;-0.71;88.29
49611;BME280;35515;48.766;9.176;2023-01-27T00:46:10;98606.47;;;-0.55;87.89
49611;BME280;35515;48.766;9.176;2023-01-27T00:48:37;98610.06;;;-0.66;87.88
49611;BME280;35515;48.766;9.176;2023-01-27T00:51:05;98611.44;;;-0.51;87.05
49611;BME280;35515;48.766;9.176;2023-01-27T00:53:32;98612.16;;;-0.39;86.03
49611;BME280;35515;48.766;9.176;2023-01-27T00:55:58;98606.50;;;-0.76;88.34
49611;BME280;35515;48.766;9.176;2023-01-27T00:58:25;98611.75;;;-0.65;88.29
49611;BME280;35515;48.766;9.176;2023-01-27T01:00:52;98611.91;;;-0.66;87.94
49611;BME280;35515;48.766;9.176;2023-01-27T01:03:19;98609.88;;;-0.74;88.16
49611;BME280;35515;48.766;9.176;2023-01-27T01:05:45;98620.44;;;-0.84;88.83
49611;BME280;35515;48.766;9.176;2023-01-27T01:08:13;98613.38;;;-0.95;89.81
49611;BME280;35515;48.766;9.176;2023-01-27T01:10:40;98616.25;;;-0.87;89.11
49611;BME280;35515;48.766;9.176;2023-01-27T01:13:07;98617.72;;;-0.73;88.79
49611;BME280;35515;48.766;9.176;2023-01-27T01:15:36;98619.94;;;-0.78;88.88
49611;BME280;35515;48.766;9.176;2023-01-27T01:18:03;98617.31;;;-0.68;88.76
49611;BME280;35515;48.766;9.176;2023-01-27T01:20:30;98619.94;;;-0.78;88.67
49611;BME280;35515;48.766;9.176;2023-01-27T01:22:56;98615.91;;;-0.72;88.87
49611;BME280;35515;48.766;9.176;2023-01-27T01:25:24;98623.53;;;-1.00;90.26
49611;BME280;35515;48.766;9.176;2023-01-27T01:27:51;98616.44;;;-0.99;90.78
49611;BME280;35515;48.766;9.176;2023-01-27T01:30:17;98623.13;;;-1.05;91.37
49611;BME280;35515;48.766;9.176;2023-01-27T01:32:45;98622.59;;;-0.99;91.01
49611;BME280;35515;48.766;9.176;2023-01-27T01:35:12;98635.34;;;-1.14;91.89
49611;BME280;35515;48.766;9.176;2023-01-27T01:37:38;98631.72;;;-1.13;92.20
49611;BME280;35515;48.766;9.176;2023-01-27T01:40:06;98622.78;;;-1.12;92.02
49611;BME280;35515;48.766;9.176;2023-01-27T01:43:02;98621.75;;;-0.78;90.48
49611;BME280;35515;48.766;9.176;2023-01-27T01:45:47;98619.63;;;-0.85;90.59
49611;BME280;35515;48.766;9.176;2023-01-27T01:48:19;98613.19;;;-0.61;88.96
49611;BME280;35515;48.766;9.176;2023-01-27T01:50:51;98607.22;;;-0.53;88.31
49611;BME280;35515;48.766;9.176;2023-01-27T01:53:18;98613.00;;;-0.69;90.03
49611;BME280;35515;48.766;9.176;2023-01-27T01:55:47;98608.84;;;-0.62;89.44
49611;BME280;35515;48.766;9.176;2023-01-27T01:58:15;98601.94;;;-0.64;89.03
49611;BME280;35515;48.766;9.176;2023-01-27T02:00:42;98597.13;;;-0.49;88.79
49611;BME280;35515;48.766;9.176;2023-01-27T02:03:09;98599.38;;;-0.55;88.14
49611;BME280;35515;48.766;9.176;2023-01-27T02:05:39;98582.66;;;-0.57;88.30
49611;BME280;35515;48.766;9.176;2023-01-27T02:08:11;98585.97;;;-0.43;87.71
49611;BME280;35515;48.766;9.176;2023-01-27T02:10:40;98595.34;;;-0.70;88.81
49611;BME280;35515;48.766;9.176;2023-01-27T02:13:07;98589.75;;;-0.88;89.56
49611;BME280;35515;48.766;9.176;2023-01-27T02:15:35;98594.50;;;-0.92;89.71
49611;BME280;35515;48.766;9.176;2023-01-27T02:18:02;98590.94;;;-1.02;90.79
49611;BME280;35515;48.766;9.176;2023-01-27T02:20:34;98587.31;;;-1.01;91.28
49611;BME280;35515;48.766;9.176;2023-01-27T02:23:10;98587.19;;;-0.99;91.17
49611;BME280;35515;48.766;9.176;2023-01-27T02:25:52;98582.38;;;-0.85;90.30
49611;BME280;35515;48.766;9.176;2023-01-27T02:28:21;98584.06;;;-0.83;89.73
49611;BME280;35515;48.766;9.176;2023-01-27T02:30:51;98580.28;;;-0.60;88.01
49611;BME280;35515;48.766;9.176;2023-01-27T02:33:17;98578.78;;;-0.53;88.01
49611;BME280;35515;48.766;9.176;2023-01-27T02:35:50;98585.38;;;-0.47;87.52
49611;BME280;35515;48.766;9.176;2023-01-27T02:38:22;98577.47;;;-0.58;87.21
49611;BME280;35515;48.766;9.176;2023-01-27T02:40:53;98580.47;;;-0.52;86.41
49611;BME280;35515;48.766;9.176;2023-01-27T02:43:20;98586.41;;;-0.38;85.66
49611;BME280;35515;48.766;9.176;2023-01-27T02:45:46;98594.66;;;-0.41;86.24
49611;BME280;35515;48.766;9.176;2023-01-27T02:48:13;98595.16;;;-0.57;86.72
49611;BME280;35515;48.766;9.176;2023-01-27T02:50:40;98589.56;;;-0.54;86.41
49611;BME280;35515;48.766;9.176;2023-01-27T02:53:07;98579.50;;;-0.51;86.43
49611;BME280;35515;48.766;9.176;2023-01-27T02:55:33;98583.56;;;-0.15;84.57
49611;BME280;35515;48.766;9.176;2023-01-27T02:58:01;98587.22;;;-0.38;84.83
49611;BME280;35515;48.766;9.176;2023-01-27T03:00:28;98582.84;;;-0.48;85.74
49611;BME280;35515;48.766;9.176;2023-01-27T03:02:54;98578.94;;;-0.75;86.69
49611;BME280;35515;48.766;9.176;2023-01-27T03:05:21;98585.00;;;-0.63;85.80
49611;BME280;35515;48.766;9.176;2023-01-27T03:07:47;98564.56;;;-0.63;85.96
49611;BME280;35515;48.766;9.176;2023-01-27T03:10:14;98569.88;;;-0.63;86.32
49611;BME280;35515;48.766;9.176;2023-01-27T03:12:40;98572.50;;;-0.42;85.41
49611;BME280;35515;48.766;9.176;2023-01-27T03:15:09;98578.06;;;-0.55;85.55
49611;BME280;35515;48.766;9.176;2023-01-27T03:17:53;98572.56;;;-0.32;84.09
49611;BME280;35515;48.766;9.176;2023-01-27T03:20:40;98577.81;;;-0.52;84.78
49611;BME280;35515;48.766;9.176;2023-01-27T03:23:07;98583.59;;;-0.68;85.53
49611;BME280;35515;48.766;9.176;2023-01-27T03:25:34;98583.00;;;-0.71;85.94
49611;BME280;35515;48.766;9.176;2023-01-27T03:28:01;98580.75;;;-0.76;85.73
49611;BME280;35515;48.766;9.176;2023-01-27T03:30:29;98579.56;;;-0.83;86.01
49611;BME280;35515;48.766;9.176;2023-01-27T03:32:56;98583.09;;;-0.82;85.57
49611;BME280;35515;48.766;9.176;2023-01-27T03:35:22;98584.97;;;-0.73;85.87
49611;BME280;35515;48.766;9.176;2023-01-27T03:37:58;98592.59;;;-0.59;84.94
49611;BME280;35515;48.766;9.176;2023-01-27T03:40:42;98589.56;;;-0.54;84.33
49611;BME280;35515;48.766;9.176;2023-01-27T03:43:26;98586.72;;;-0.62;84.62
49611;BME280;35515;48.766;9.176;2023-01-27T03:46:11;98594.03;;;-0.55;85.03
49611;BME280;35515;48.766;9.176;2023-01-27T03:48:41;98585.84;;;-0.63;84.61
49611;BME280;35515;48.766;9.176;2023-01-27T03:51:25;98592.34;;;-0.56;85.18
49611;BME280;35515;48.766;9.176;2023-01-27T03:53:52;98587.78;;;-0.44;84.66
49611;BME280;35515;48.766;9.176;2023-01-27T03:56:20;98580.91;;;-0.46;84.69
49611;BME280;35515;48.766;9.176;2023-01-27T03:58:48;98591.00;;;-0.40;84.81
49611;BME280;35515;48.766;9.176;2023-01-27T04:01:16;98599.03;;;-0.61;85.62
49611;BME280;35515;48.766;9.176;2023-01-27T04:03:43;98590.66;;;-0.57;85.23
49611;BME280;35515;48.766;9.176;2023-01-27T04:06:29;98590.75;;;-0.37;84.18
49611;BME280;35515;48.766;9.176;2023-01-27T04:09:18;98589.97;;;-0.28;83.82
49611;BME280;35515;48.766;9.176;2023-01-27T04:11:45;98592.72;;;-0.29;83.67
49611;BME280;35515;48.766;9.176;2023-01-27T04:14:20;98591.78;;;-0.49;84.32
49611;BME280;35515;48.766;9.176;2023-01-27T04:16:47;98588.59;;;-0.74;84.81
49611;BME280;35515;48.766;9.176;2023-01-27T04:19:14;98587.91;;;-0.45;84.52
49611;BME280;35515;48.766;9.176;2023-01-27T04:21:42;98598.63;;;-0.26;83.39
49611;BME280;35515;48.766;9.176;2023-01-27T04:24:09;98593.31;;;-0.26;83.64
49611;BME280;35515;48.766;9.176;2023-01-27T04:26:41;98603.13;;;-0.26;82.64
49611;BME280;35515;48.766;9.176;2023-01-27T04:29:08;98607.03;;;-0.30;83.21
49611;BME280;35515;48.766;9.176;2023-01-27T04:31:35;98603.47;;;-0.41;83.70
49611;BME280;35515;48.766;9.176;2023-01-27T04:34:01;98613.31;;;-0.41;83.64
49611;BME280;35515;48.766;9.176;2023-01-27T04:36:28;98612.69;;;-0.24;82.80
49611;BME280;35515;48.766;9.176;2023-01-27T04:38:56;98610.56;;;-0.51;84.09
49611;BME280;35515;48.766;9.176;2023-01-27T04:41:22;98607.22;;;-0.53;84.12
49611;BME280;35515;48.766;9.176;2023-01-27T04:43:49;98603.69;;;-0.54;84.65
49611;BME280;35515;48.766;9.176;2023-01-27T04:46:15;98599.09;;;-0.52;84.79
49611;BME280;35515;48.766;9.176;2023-01-27T04:48:42;98600.06;;;-0.53;85.37
49611;BME280;35515;48.766;9.176;2023-01-27T04:51:08;98608.50;;;-0.47;85.19
49611;BME280;35515;48.766;9.176;2023-01-27T04:53:35;98602.09;;;-0.87;86.52
49611;BME280;35515;48.766;9.176;2023-01-27T04:56:05;98603.28;;;-0.80;87.44
49611;BME280;35515;48.766;9.176;2023-01-27T04:58:32;98607.03;;;-0.82;87.21
49611;BME280;35515;48.766;9.176;2023-01-27T05:00:58;98599.44;;;-0.87;87.23
49611;BME280;35515;48.766;9.176;2023-01-27T05:03:25;98597.41;;;-0.74;86.89
49611;BME280;35515;48.766;9.176;2023-01-27T05:05:51;98615.38;;;-0.87;87.60
49611;BME280;35515;48.766;9.176;2023-01-27T05:08:17;98614.94;;;-0.71;86.40
49611;BME280;35515;48.766;9.176;2023-01-27T05:10:44;98610.38;;;-0.59;86.92
49611;BME280;35515;48.766;9.176;2023-01-27T05:13:12;98609.75;;;-0.52;86.01
49611;BME280;35515;48.766;9.176;2023-01-27T05:15:38;98621.75;;;-0.57;85.73
49611;BME280;35515;48.766;9.176;2023-01-27T05:18:05;98625.25;;;-0.57;85.75
49611;BME280;35515;48.766;9.176;2023-01-27T05:20:31;98612.28;;;-0.71;86.54
49611;BME280;35515;48.766;9.176;2023-01-27T05:22:58;98601.94;;;-0.64;87.13
49611;BME280;35515;48.766;9.176;2023-01-27T05:25:41;98601.94;;;-0.43;85.41
49611;BME280;35515;48.766;9.176;2023-01-27T05:28:08;98603.03;;;-0.46;85.35
49611;BME280;35515;48.766;9.176;2023-01-27T05:30:38;98607.09;;;-0.73;86.71
49611;BME280;35515;48.766;9.176;2023-01-27T05:33:05;98626.50;;;-0.82;87.58
49611;BME280;35515;48.766;9.176;2023-01-27T05:35:33;98624.16;;;-0.75;87.58
49611;BME280;35515;48.766;9.176;2023-01-27T05:37:59;98620.53;;;-0.74;87.38
49611;BME280;35515;48.766;9.176;2023-01-27T05:40:26;98627.00;;;-0.67;87.45
49611;BME280;35515;48.766;9.176;2023-01-27T05:42:53;98627.41;;;-0.51;86.49
49611;BME280;35515;48.766;9.176;2023-01-27T05:45:20;98628.53;;;-0.43;85.71
49611;BME280;35515;48.766;9.176;2023-01-27T05:47:49;98641.72;;;-0.42;85.89
49611;BME280;35515;48.766;9.176;2023-01-27T05:50:16;98640.41;;;-0.26;84.86
49611;BME280;35515;48.766;9.176;2023-01-27T05:52:43;98633.91;;;-0.34;84.68
49611;BME280;35515;48.766;9.176;2023-01-27T05:55:10;98632.19;;;-0.44;85.08
49611;BME280;35515;48.766;9.176;2023-01-27T05:57:36;98629.59;;;-0.56;86.11
49611;BME280;35515;48.766;9.176;2023-01-27T06:00:03;98636.22;;;-0.50;85.98
49611;BME280;35515;48.766;9.176;2023-01-27T06:02:30;98641.69;;;-0.52;85.98
49611;BME280;35515;48.766;9.176;2023-01-27T06:04:58;98638.25;;;-0.63;86.62
49611;BME280;35515;48.766;9.176;2023-01-27T06:07:24;98630.75;;;-0.48;86.86
49611;BME280;35515;48.766;9.176;2023-01-27T06:09:51;98640.63;;;-0.60;86.24
49611;BME280;35515;48.766;9.176;2023-01-27T06:12:17;98633.75;;;-0.63;86.65
49611;BME280;35515;48.766;9.176;2023-01-27T06:14:44;98636.69;;;-0.66;86.89
49611;BME280;35515;48.766;9.176;2023-01-27T06:17:10;98626.31;;;-0.69;86.83
49611;BME280;35515;48.766;9.176;2023-01-27T06:19:37;98632.47;;;-0.69;87.67
49611;BME280;35515;48.766;9.176;2023-01-27T06:22:04;98636.47;;;-0.32;86.64
49611;BME280;35515;48.766;9.176;2023-01-27T06:24:31;98640.13;;;-0.54;86.13
49611;BME280;35515;48.766;9.176;2023-01-27T06:26:57;98634.16;;;-0.46;85.85
49611;BME280;35515;48.766;9.176;2023-01-27T06:29:24;98629.84;;;-0.59;85.94
49611;BME280;35515;48.766;9.176;2023-01-27T06:31:50;98641.41;;;-0.48;86.07
49611;BME280;35515;48.766;9.176;2023-01-27T06:34:17;98641.72;;;-0.63;85.77
49611;BME280;35515;48.766;9.176;2023-01-27T06:36:43;98636.28;;;-0.61;85.86
49611;BME280;35515;48.766;9.176;2023-01-27T06:39:11;98631.81;;;-0.40;84.87
49611;BME280;35515;48.766;9.176;2023-01-27T06:41:38;98644.53;;;-0.43;84.49
49611;BME280;35515;48.766;9.176;2023-01-27T06:44:04;98644.34;;;-0.52;85.72
49611;BME280;35515;48.766;9.176;2023-01-27T06:46:31;98648.69;;;-0.51;85.89
49611;BME280;35515;48.766;9.176;2023-01-27T06:48:58;98652.03;;;-0.27;84.52
49611;BME280;35515;48.766;9.176;2023-01-27T06:51:24;98653.72;;;-0.26;84.00
49611;BME280;35515;48.766;9.176;2023-01-27T06:53:51;98665.31;;;-0.37;84.59
49611;BME280;35515;48.766;9.176;2023-01-27T06:56:19;98676.31;;;-0.21;84.42
49611;BME280;35515;48.766;9.176;2023-01-27T06:58:46;98672.19;;;-0.56;85.61
49611;BME280;35515;48.766;9.176;2023-01-27T07:01:12;98673.53;;;-0.40;84.04
49611;BME280;35515;48.766;9.176;2023-01-27T07:03:39;98675.34;;;-0.41;84.70
49611;BME280;35515;48.766;9.176;2023-01-27T07:06:05;98682.47;;;-0.20;83.76
49611;BME280;35515;48.766;9.176;2023-01-27T07:08:32;98689.50;;;-0.19;83.48
49611;BME280;35515;48.766;9.176;2023-01-27T07:11:01;98694.69;;;-0.39;84.43
49611;BME280;35515;48.766;9.176;2023-01-27T07:13:29;98703.09;;;-0.43;85.37
49611;BME280;35515;48.766;9.176;2023-01-27T07:15:56;98695.28;;;-0.35;85.14
49611;BME280;35515;48.766;9.176;2023-01-27T07:18:22;98702.47;;;-0.26;84.60
49611;BME280;35515;48.766;9.176;2023-01-27T07:20:49;98706.47;;;-0.41;85.16
49611;BME280;35515;48.766;9.176;2023-01-27T07:23:15;98705.94;;;-0.35;84.68
49611;BME280;35515;48.766;9.176;2023-01-27T07:25:42;98704.63;;;-0.20;84.13
49611;BME280;35515;48.766;9.176;2023-01-27T07:28:09;98716.34;;;-0.32;84.48
49611;BME280;35515;48.766;9.176;2023-01-27T07:30:37;98715.69;;;-0.66;86.29
49611;BME280;35515;48.766;9.176;2023-01-27T07:33:04;98714.00;;;-0.46;85.58
49611;BME280;35515;48.766;9.176;2023-01-27T07:35:31;98710.00;;;-0.52;85.60
49611;BME280;35515;48.766;9.176;2023-01-27T07:37:57;98710.59;;;-0.48;86.12
49611;BME280;35515;48.766;9.176;2023-01-27T07:40:24;98718.88;;;-0.30;84.72
49611;BME280;35515;48.766;9.176;2023-01-27T07:42:51;98712.56;;;-0.51;85.82
49611;BME280;35515;48.766;9.176;2023-01-27T07:45:17;98716.91;;;-0.49;86.41
49611;BME280;35515;48.766;9.176;2023-01-27T07:47:45;98719.16;;;-0.66;86.61
49611;BME280;35515;48.766;9.176;2023-01-27T07:50:12;98721.53;;;-0.52;86.38
49611;BME280;35515;48.766;9.176;2023-01-27T07:52:39;98724.09;;;-0.40;85.86
49611;BME280;35515;48.766;9.176;2023-01-27T07:55:06;98726.53;;;-0.37;85.69
49611;BME280;35515;48.766;9.176;2023-01-27T07:57:33;98726.63;;;-0.39;84.94
49611;BME280;35515;48.766;9.176;2023-01-27T08:00:00;98734.31;;;-0.24;83.53
49611;BME280;35515;48.766;9.176;2023-01-27T08:02:27;98731.00;;;-0.17;83.11
49611;BME280;35515;48.766;9.176;2023-01-27T08:04:57;98735.69;;;-0.30;84.00
49611;BME280;35515;48.766;9.176;2023-01-27T08:07:23;98738.16;;;-0.38;84.98
49611;BME280;35515;48.766;9.176;2023-01-27T08:09:50;98740.63;;;-0.46;84.02
49611;BME280;35515;48.766;9.176;2023-01-27T08:12:18;98726.72;;;-0.50;84.71
49611;BME280;35515;48.766;9.176;2023-01-27T08:14:45;98734.72;;;-0.61;85.39
49611;BME280;35515;48.766;9.176;2023-01-27T08:17:11;98737.94;;;-0.68;86.04
49611;BME280;35515;48.766;9.176;2023-01-27T08:19:38;98733.63;;;-0.59;85.08
49611;BME280;35515;48.766;9.176;2023-01-27T08:22:05;98739.69;;;-0.57;84.55
49611;BME280;35515;48.766;9.176;2023-01-27T08:24:32;98727.13;;;-0.55;84.84
49611;BME280;35515;48.766;9.176;2023-01-27T08:26:58;98743.59;;;-0.40;84.42
49611;BME280;35515;48.766;9.176;2023-01-27T08:29:25;98756.72;;;-0.48;83.72
49611;BME280;35515;48.766;9.176;2023-01-27T08:31:53;98752.69;;;-0.42;84.19
49611;BME280;35515;48.766;9.176;2023-01-27T08:34:20;98751.75;;;-0.53;84.71
49611;BME280;35515;48.766;9.176;2023-01-27T08:36:46;98740.28;;;-0.53;84.40
49611;BME280;35515;48.766;9.176;2023-01-27T08:39:14;98764.31;;;-0.22;83.67
49611;BME280;35515;48.766;9.176;2023-01-27T08:41:41;98756.31;;;-0.43;83.86
49611;BME280;35515;48.766;9.176;2023-01-27T08:44:07;98760.88;;;-0.34;83.31
49611;BME280;35515;48.766;9.176;2023-01-27T08:46:34;98758.25;;;-0.45;83.53
49611;BME280;35515;48.766;9.176;2023-01-27T08:49:00;98752.75;;;-0.32;83.02
49611;BME280;35515;48.766;9.176;2023-01-27T08:51:27;98753.34;;;-0.29;83.79
49611;BME280;35515;48.766;9.176;2023-01-27T08:53:54;98764.56;;;-0.46;84.54
49611;BME280;35515;48.766;9.176;2023-01-27T08:56:22;98754.50;;;-0.43;84.32
49611;BME280;35515;48.766;9.176;2023-01-27T08:58:48;98762.81;;;-0.36;83.07
49611;BME280;35515;48.766;9.176;2023-01-27T09:01:17;98772.88;;;-0.40;82.98
49611;BME280;35515;48.766;9.176;2023-01-27T09:03:44;98769.59;;;-0.32;81.50
49611;BME280;35515;48.766;9.176;2023-01-27T09:06:12;98782.53;;;-0.39;81.70
49611;BME280;35515;48.766;9.176;2023-01-27T09:08:39;98783.44;;;-0.49;82.17
49611;BME280;35515;48.766;9.176;2023-01-27T09:11:10;98774.78;;;-0.30;81.28
49611;BME280;35515;48.766;9.176;2023-01-27T09:13:38;98764.59;;;-0.25;80.39
49611;BME280;35515;48.766;9.176;2023-01-27T09:16:05;98761.13;;;-0.37;80.51
49611;BME280;35515;48.766;9.176;2023-01-27T09:18:32;98770.66;;;-0.56;82.31
49611;BME280;35515;48.766;9.176;2023-01-27T09:21:02;98768.34;;;-0.49;81.47
49611;BME280;35515;48.766;9.176;2023-01-27T09:23:29;98764.50;;;-0.35;80.95
49611;BME280;35515;48.766;9.176;2023-01-27T09:25:56;98762.03;;;-0.27;81.49
49611;BME280;35515;48.766;9.176;2023-01-27T09:28:22;98770.47;;;-0.22;80.24
49611;BME280;35515;48.766;9.176;2023-01-27T09:30:50;98764.50;;;-0.35;80.74
49611;BME280;35515;48.766;9.176;2023-01-27T09:33:16;98766.97;;;-0.43;81.55
49611;BME280;35515;48.766;9.176;2023-01-27T09:35:45;98762.81;;;-0.36;81.21
49611;BME280;35515;48.766;9.176;2023-01-27T09:38:14;98764.50;;;-0.35;81.01
49611;BME280;35515;48.766;9.176;2023-01-27T09:40:54;98774.22;;;-0.45;81.47
49611;BME280;35515;48.766;9.176;2023-01-27T09:43:37;98773.78;;;-0.29;80.90
49611;BME280;35515;48.766;9.176;2023-01-27T09:46:18;98778.78;;;-0.36;81.46
49611;BME280;35515;48.766;9.176;2023-01-27T09:49:01;98770.47;;;-0.22;80.95
49611;BME280;35515;48.766;9.176;2023-01-27T09:51:40;98774.19;;;-0.34;80.92
49611;BME280;35515;48.766;9.176;2023-01-27T09:54:37;98767.56;;;-0.19;79.80
49611;BME280;35515;48.766;9.176;2023-01-27T09:57:15;98773.47;;;-0.15;79.47
49611;BME280;35515;48.766;9.176;2023-01-27T10:00:12;98777.81;;;-0.14;80.18
49611;BME280;35515;48.766;9.176;2023-01-27T10:08:55;98775.22;;;-0.46;82.79
49611;BME280;35515;48.766;9.176;2023-01-27T10:11:32;98776.84;;;-0.34;82.37
49611;BME280;35515;48.766;9.176;2023-01-27T10:14:13;98776.25;;;-0.38;82.59
49611;BME280;35515;48.766;9.176;2023-01-27T10:17:02;98777.22;;;-0.18;82.04
49611;BME280;35515;48.766;9.176;2023-01-27T10:19:50;98788.53;;;-0.04;80.82
49611;BME280;35515;48.766;9.176;2023-01-27T10:22:24;98777.31;;;-0.08;80.68
49611;BME280;35515;48.766;9.176;2023-01-27T10:25:04;98770.47;;;-0.22;80.79
49611;BME280;35515;48.766;9.176;2023-01-27T10:27:36;98772.75;;;-0.38;82.18
49611;BME280;35515;48.766;9.176;2023-01-27T10:30:09;98773.59;;;-0.38;81.69
49611;BME280;35515;48.766;9.176;2023-01-27T10:32:42;98781.25;;;-0.23;80.27
49611;BME280;35515;48.766;9.176;2023-01-27T10:35:15;98779.19;;;-0.20;79.57
49611;BME280;35515;48.766;9.176;2023-01-27T10:37:49;98778.50;;;0.09;78.96
49611;BME280;35515;48.766;9.176;2023-01-27T10:40:24;98776.44;;;-0.08;78.82
49611;BME280;35515;48.766;9.176;2023-01-27T10:42:59;98779.53;;;-0.13;78.70
49611;BME280;35515;48.766;9.176;2023-01-27T10:45:34;98779.69;;;-0.26;79.13
49611;BME280;35515;48.766;9.176;2023-01-27T10:48:26;98781.09;;;-0.10;79.08
49611;BME280;35515;48.766;9.176;2023-01-27T10:50:57;98789.31;;;-0.13;78.67
49611;BME280;35515;48.766;9.176;2023-01-27T10:53:29;98792.06;;;-0.25;79.47
49611;BME280;35515;48.766;9.176;2023-01-27T10:56:02;98784.91;;;-0.03;78.70
49611;BME280;35515;48.766;9.176;2023-01-27T10:58:41;98788.47;;;-0.14;78.94
49611;BME280;35515;48.766;9.176;2023-01-27T11:01:13;98780.13;;;-0.09;79.90
49611;BME280;35515;48.766;9.176;2023-01-27T11:03:44;98783.47;;;-0.07;79.54
49611;BME280;35515;48.766;9.176;2023-01-27T11:06:15;98773.59;;;0.05;78.83
49611;BME280;35515;48.766;9.176;2023-01-27T11:08:46;98782.19;;;0.08;78.32
49611;BME280;35515;48.766;9.176;2023-01-27T11:11:16;98774.88;;;0.10;78.46
49611;BME280;35515;48.766;9.176;2023-01-27T11:14:14;98778.09;;;0.04;78.19
49611;BME280;35515;48.766;9.176;2023-01-27T11:16:45;98771.56;;;0.18;78.10
49611;BME280;35515;48.766;9.176;2023-01-27T11:19:21;98780.84;;;0.24;77.14
49611;BME280;35515;48.766;9.176;2023-01-27T11:21:52;98769.66;;;0.30;77.10
49611;BME280;35515;48.766;9.176;2023-01-27T11:24:25;98781.56;;;0.26;77.49
49611;BME280;35515;48.766;9.176;2023-01-27T11:26:59;98782.22;;;0.18;77.49
49611;BME280;35515;48.766;9.176;2023-01-27T11:29:35;98773.13;;;-0.01;78.86
49611;BME280;35515;48.766;9.176;2023-01-27T11:32:09;98772.88;;;0.03;79.28
49611;BME280;35515;48.766;9.176;2023-01-27T11:34:45;98765.91;;;0.11;78.63
49611;BME280;35515;48.766;9.176;2023-01-27T11:37:20;98763.06;;;0.03;78.70
49611;BME280;35515;48.766;9.176;2023-01-27T11:39:47;98764.13;;;-0.09;78.93
49611;BME280;35515;48.766;9.176;2023-01-27T11:42:14;98758.50;;;0.15;78.11
49611;BME280;35515;48.766;9.176;2023-01-27T11:44:42;98755.06;;;0.24;77.53
49611;BME280;35515;48.766;9.176;2023-01-27T11:47:15;98755.38;;;0.31;77.31
49611;BME280;35515;48.766;9.176;2023-01-27T11:49:45;98743.97;;;0.29;76.99
49611;BME280;35515;48.766;9.176;2023-01-27T11:52:16;98752.31;;;0.14;77.46
49611;BME280;35515;48.766;9.176;2023-01-27T11:54:49;98754.63;;;-0.02;78.31
49611;BME280;35515;48.766;9.176;2023-01-27T11:57:20;98753.84;;;0.07;78.92
49611;BME280;35515;48.766;9.176;2023-01-27T11:59:49;98747.44;;;0.20;78.61
49611;BME280;35515;48.766;9.176;2023-01-27T12:02:25;98747.38;;;0.31;77.96
49611;BME280;35515;48.766;9.176;2023-01-27T12:04:57;98746.53;;;0.09;78.37
49611;BME280;35515;48.766;9.176;2023-01-27T12:07:34;98740.41;;;0.19;78.13
49611;BME280;35515;48.766;9.176;2023-01-27T12:10:20;98737.22;;;0.25;77.91
49611;BME280;35515;48.766;9.176;2023-01-27T12:12:47;98737.91;;;0.17;77.48
49611;BME280;35515;48.766;9.176;2023-01-27T12:15:15;98734.03;;;0.31;78.14
49611;BME280;35515;48.766;9.176;2023-01-27T12:17:44;98739.25;;;0.42;77.66
49611;BME280;35515;48.766;9.176;2023-01-27T12:20:24;98742.13;;;0.20;78.20
49611;BME280;35515;48.766;9.176;2023-01-27T12:22:54;98739.63;;;0.28;79.13
49611;BME280;35515;48.766;9.176;2023-01-27T12:25:26;98738.81;;;0.37;77.76
49611;BME280;35515;48.766;9.176;2023-01-27T12:27:56;98739.25;;;0.42;77.32
49611;BME280;35515;48.766;9.176;2023-01-27T12:30:26;98730.84;;;0.06;79.21
49611;BME280;35515;48.766;9.176;2023-01-27T12:32:54;98728.16;;;0.37;78.76
49611;BME280;35515;48.766;9.176;2023-01-27T12:35:23;98727.06;;;0.40;79.06
49611;BME280;35515;48.766;9.176;2023-01-27T12:37:55;98729.84;;;0.38;78.10
49611;BME280;35515;48.766;9.176;2023-01-27T12:40:25;98717.78;;;0.34;78.39
49611;BME280;35515;48.766;9.176;2023-01-27T12:43:08;98719.84;;;0.30;78.58
49611;BME280;35515;48.766;9.176;2023-01-27T12:45:35;98731.28;;;0.42;78.76
49611;BME280;35515;48.766;9.176;2023-01-27T12:48:15;98728.16;;;0.37;78.12
49611;BME280;35515;48.766;9.176;2023-01-27T12:50:53;98730.50;;;0.21;79.29
49611;BME280;35515;48.766;9.176;2023-01-27T12:53:20;98722.88;;;0.16;79.84
49611;BME280;35515;48.766;9.176;2023-01-27T12:55:55;98731.53;;;0.29;79.20
49611;BME280;35515;48.766;9.176;2023-01-27T12:58:28;98728.41;;;0.24;79.46
49611;BME280;35515;48.766;9.176;2023-01-27T13:00:56;98722.53;;;0.30;79.74
49611;BME280;35515;48.766;9.176;2023-01-27T13:03:24;98737.84;;;0.38;79.79
49611;BME280;35515;48.766;9.176;2023-01-27T13:05:52;98724.97;;;0.43;78.57
49611;BME280;35515;48.766;9.176;2023-01-27T13:08:20;98724.25;;;0.41;78.45
49611;BME280;35515;48.766;9.176;2023-01-27T13:10:51;98718.66;;;0.44;79.33
49611;BME280;35515;48.766;9.176;2023-01-27T13:13:22;98719.22;;;0.48;79.16
49611;BME280;35515;48.766;9.176;2023-01-27T13:15:55;98720.59;;;0.42;79.38
49611;BME280;35515;48.766;9.176;2023-01-27T13:18:22;98728.78;;;0.20;80.17
49611;BME280;35515;48.766;9.176;2023-01-27T13:20:51;98716.34;;;0.20;80.71
49611;BME280;35515;48.766;9.176;2023-01-27T13:23:21;98726.56;;;0.25;80.56